createdAt,value
2018-07-11T00:01:10.408Z,97357.63
2018-07-11T00:03:46.356Z,97359.82
2018-07-11T00:06:19.951Z,97352.14
2018-07-11T00:08:54.309Z,97349.11
2018-07-11T00:11:26.915Z,97341.51
2018-07-11T00:14:00.998Z,97344.28
2018-07-11T00:16:34.971Z,97346.33
2018-07-11T00:19:11.697Z,97334.30
2018-07-11T00:21:46.781Z,97328.33
2018-07-11T00:24:20.712Z,97327.20
2018-07-11T00:26:53.511Z,97318.69
2018-07-11T00:29:26.697Z,97315.72
2018-07-11T00:32:25.362Z,97315.22
2018-07-11T00:35:16.973Z,97315.48
2018-07-11T00:47:27.218Z,97312.34
2018-07-11T00:50:05.176Z,97318.66
2018-07-11T00:52:41.924Z,97320.98
2018-07-11T00:55:19.887Z,97331.56
2018-07-11T00:58:03.350Z,97335.58
2018-07-11T01:00:42.494Z,97333.86
2018-07-11T01:03:20.526Z,97323.19
2018-07-11T01:06:02.112Z,97316.13
2018-07-11T01:08:42.037Z,97317.58
2018-07-11T01:11:25.592Z,97316.32
2018-07-11T01:14:05.654Z,97317.34
2018-07-11T01:16:43.048Z,97305.58
2018-07-11T01:19:23.273Z,97302.37
2018-07-11T01:22:09.369Z,97301.38
2018-07-11T01:24:53.837Z,97304.88
2018-07-11T01:27:31.852Z,97303.87
2018-07-11T01:30:11.793Z,97301.34
2018-07-11T01:32:55.136Z,97311.80
2018-07-11T01:35:33.926Z,97313.25
2018-07-11T01:38:09.444Z,97314.05
2018-07-11T01:40:44.903Z,97312.13
2018-07-11T01:43:24.571Z,97311.14
2018-07-11T01:46:02.862Z,97318.23
2018-07-11T01:48:39.369Z,97320.76
2018-07-11T01:51:21.002Z,97318.39
2018-07-11T01:54:02.383Z,97313.28
2018-07-11T01:56:38.603Z,97311.38
2018-07-11T01:59:13.886Z,97301.08
2018-07-11T02:01:53.738Z,97291.67
2018-07-11T02:04:33.097Z,97282.63
2018-07-11T02:07:13.981Z,97292.10
2018-07-11T02:09:52.761Z,97298.19
2018-07-11T02:12:39.204Z,97304.34
2018-07-11T02:15:15.130Z,97300.30
2018-07-11T02:17:55.760Z,97295.89
2018-07-11T02:20:34.888Z,97296.92
2018-07-11T02:23:12.833Z,97299.66
2018-07-11T02:25:53.469Z,97299.41
2018-07-11T02:28:35.448Z,97294.87
2018-07-11T02:31:18.687Z,97296.28
2018-07-11T02:34:05.019Z,97292.84
2018-07-11T02:36:41.940Z,97290.56
2018-07-11T02:39:16.684Z,97292.53
2018-07-11T02:42:01.324Z,97291.33
2018-07-11T02:47:28.541Z,97307.08
2018-07-11T02:50:02.777Z,97300.44
2018-07-11T02:52:46.053Z,97298.52
2018-07-11T02:55:20.716Z,97298.80
2018-07-11T02:57:55.938Z,97295.75
2018-07-11T03:00:32.916Z,97298.52
2018-07-11T03:03:08.846Z,97303.14
2018-07-11T03:05:45.330Z,97300.88
2018-07-11T03:08:25.074Z,97300.70
2018-07-11T03:11:05.873Z,97300.50
2018-07-11T03:13:49.813Z,97296.73
2018-07-11T03:16:28.069Z,97294.86
2018-07-11T03:19:05.077Z,97295.59
2018-07-11T03:21:34.717Z,97292.44
2018-07-11T03:24:10.851Z,97294.56
2018-07-11T03:26:51.170Z,97296.32
2018-07-11T03:29:39.147Z,97288.80
2018-07-11T03:32:22.168Z,97282.16
2018-07-11T03:37:40.263Z,97296.88
2018-07-11T03:40:18.301Z,97298.64
2018-07-11T03:42:51.947Z,97292.42
2018-07-11T03:45:30.374Z,97287.32
2018-07-11T03:48:05.655Z,97283.59
2018-07-11T03:53:26.415Z,97274.13
2018-07-11T03:56:04.613Z,97276.16
2018-07-11T03:58:46.750Z,97279.48
2018-07-11T04:01:22.003Z,97277.12
2018-07-11T04:04:02.893Z,97279.95
2018-07-11T04:06:42.642Z,97273.52
2018-07-11T04:09:20.060Z,97268.61
2018-07-11T04:12:02.856Z,97274.02
2018-07-11T04:14:37.624Z,97269.25
2018-07-11T04:17:19.919Z,97267.08
2018-07-11T04:19:53.529Z,97268.84
2018-07-11T04:22:35.033Z,97268.85
2018-07-11T04:25:09.464Z,97263.00
2018-07-11T04:27:43.757Z,97270.23
2018-07-11T04:33:14.248Z,97269.61
2018-07-11T04:41:17.892Z,97265.05
2018-07-11T04:43:53.685Z,97271.98
2018-07-11T04:46:35.926Z,97267.89
2018-07-11T04:49:11.684Z,97266.65
2018-07-11T04:54:36.044Z,97261.58
2018-07-11T04:57:19.357Z,97266.21
2018-07-11T04:59:53.662Z,97266.78
2018-07-11T05:02:29.991Z,97261.61
2018-07-11T05:05:06.751Z,97261.09
2018-07-11T05:07:54.237Z,97260.08
2018-07-11T05:10:33.787Z,97258.72
2018-07-11T05:13:18.310Z,97256.69
2018-07-11T05:15:55.518Z,97262.72
2018-07-11T05:18:35.152Z,97257.59
2018-07-11T05:21:12.109Z,97251.08
2018-07-11T05:23:54.090Z,97256.95
2018-07-11T05:26:31.247Z,97259.59
2018-07-11T05:29:09.634Z,97251.64
2018-07-11T05:31:48.084Z,97255.67
2018-07-11T05:34:24.227Z,97255.24
2018-07-11T05:37:04.681Z,97251.58
2018-07-11T05:39:41.127Z,97252.46
2018-07-11T05:42:17.188Z,97252.78
2018-07-11T05:44:52.889Z,97259.75
2018-07-11T05:47:26.903Z,97258.09
2018-07-11T05:50:07.027Z,97267.15
2018-07-11T05:52:47.787Z,97263.33
2018-07-11T05:55:29.769Z,97264.77
2018-07-11T05:58:09.258Z,97262.52
2018-07-11T06:00:46.861Z,97265.82
2018-07-11T06:03:28.848Z,97260.50
2018-07-11T06:06:04.908Z,97269.11
2018-07-11T06:08:50.208Z,97266.98
2018-07-11T06:11:28.504Z,97259.92
2018-07-11T06:14:07.525Z,97265.36
2018-07-11T06:16:48.309Z,97270.66
2018-07-11T06:19:25.377Z,97275.03
2018-07-11T06:22:04.752Z,97281.30
2018-07-11T06:24:40.878Z,97280.55
2018-07-11T06:27:20.210Z,97278.09
2018-07-11T06:29:59.460Z,97283.95
2018-07-11T06:32:57.402Z,97283.50
2018-07-11T06:35:40.549Z,97283.71
2018-07-11T06:38:22.899Z,97291.80
2018-07-11T06:41:01.092Z,97286.81
2018-07-11T06:43:45.330Z,97284.89
2018-07-11T06:46:23.535Z,97284.55
2018-07-11T06:49:00.885Z,97292.67
2018-07-11T06:51:40.270Z,97285.88
2018-07-11T06:54:15.706Z,97285.66
2018-07-11T06:56:53.260Z,97279.51
2018-07-11T06:59:39.067Z,97290.64
2018-07-11T07:02:18.767Z,97291.16
2018-07-11T07:04:58.279Z,97294.71
2018-07-11T07:07:37.919Z,97291.33
2018-07-11T07:10:18.711Z,97292.55
2018-07-11T07:12:59.608Z,97297.67
2018-07-11T07:15:40.101Z,97298.09
2018-07-11T07:18:15.007Z,97296.84
2018-07-11T07:20:56.594Z,97293.91
2018-07-11T07:23:37.690Z,97289.45
2018-07-11T07:26:12.048Z,97287.09
2018-07-11T07:28:46.781Z,97281.20
2018-07-11T07:31:25.074Z,97276.11
2018-07-11T07:34:05.424Z,97272.66
2018-07-11T07:36:46.844Z,97276.03
2018-07-11T07:39:29.933Z,97271.50
2018-07-11T07:42:16.298Z,97276.94
2018-07-11T07:44:52.781Z,97276.41
2018-07-11T07:47:30.030Z,97282.62
2018-07-11T07:50:06.219Z,97279.95
2018-07-11T07:52:43.250Z,97285.35
2018-07-11T07:55:24.782Z,97282.16
2018-07-11T07:58:05.650Z,97289.39
2018-07-11T08:00:44.678Z,97287.25
2018-07-11T08:03:24.086Z,97279.47
2018-07-11T08:05:59.127Z,97280.03
2018-07-11T08:08:37.721Z,97276.80
2018-07-11T08:11:18.423Z,97273.87
2018-07-11T08:13:57.043Z,97274.38
2018-07-11T08:16:32.875Z,97279.45
2018-07-11T08:19:12.366Z,97276.48
2018-07-11T08:21:50.298Z,97276.27
2018-07-11T08:24:34.024Z,97282.45
2018-07-11T08:27:20.232Z,97277.06
2018-07-11T08:30:08.911Z,97285.63
2018-07-11T08:32:57.165Z,97283.77
2018-07-11T08:36:19.977Z,97281.34
2018-07-11T08:38:59.977Z,97278.66
2018-07-11T08:42:44.728Z,97278.41
2018-07-11T08:45:27.656Z,97271.98
2018-07-11T08:48:20.915Z,97275.17
2018-07-11T08:51:04.513Z,97271.98
2018-07-11T08:54:00.909Z,97270.63
2018-07-11T08:56:46.779Z,97268.47
2018-07-11T09:02:33.844Z,97269.80
2018-07-11T09:05:24.345Z,97281.31
2018-07-11T09:10:15.571Z,97282.41
2018-07-11T09:13:05.762Z,97275.15
2018-07-11T09:15:54.758Z,97270.88
2018-07-11T09:20:41.336Z,97274.38
2018-07-11T09:25:34.532Z,97267.13
2018-07-11T09:28:10.737Z,97268.00
2018-07-11T09:30:50.798Z,97270.43
2018-07-11T09:33:30.888Z,97269.53
2018-07-11T09:36:11.907Z,97261.94
2018-07-11T09:38:47.722Z,97266.49
2018-07-11T09:41:32.027Z,97259.67
2018-07-11T09:44:08.604Z,97266.42
2018-07-11T09:46:53.645Z,97258.80
2018-07-11T09:49:37.258Z,97268.19
2018-07-11T09:52:20.291Z,97264.16
2018-07-11T09:55:00.244Z,97263.05
2018-07-11T09:57:44.778Z,97262.66
2018-07-11T10:00:28.550Z,97265.25
2018-07-11T10:03:11.936Z,97266.03
2018-07-11T10:05:49.285Z,97270.11
2018-07-11T10:08:25.205Z,97267.81
2018-07-11T10:11:08.540Z,97263.29
2018-07-11T10:13:51.832Z,97260.76
2018-07-11T10:16:35.995Z,97263.77
2018-07-11T10:19:14.994Z,97259.66
2018-07-11T10:21:55.402Z,97261.91
2018-07-11T10:24:32.294Z,97261.67
2018-07-11T10:27:12.151Z,97268.24
2018-07-11T10:29:55.024Z,97269.77
2018-07-11T10:32:34.840Z,97274.88
2018-07-11T10:35:24.936Z,97272.79
2018-07-11T10:38:03.619Z,97284.02
2018-07-11T10:40:49.971Z,97287.53
2018-07-11T10:43:28.061Z,97281.09
2018-07-11T10:46:08.243Z,97281.37
2018-07-11T10:48:49.825Z,97283.22
2018-07-11T10:51:31.502Z,97283.48
2018-07-11T10:54:08.329Z,97282.92
2018-07-11T10:56:46.731Z,97289.00
2018-07-11T11:02:19.398Z,97284.03
2018-07-11T11:07:48.024Z,97286.44
2018-07-11T11:13:13.540Z,97286.92
2018-07-11T11:15:51.753Z,97277.07
2018-07-11T11:18:31.135Z,97269.02
2018-07-11T11:21:09.910Z,97262.83
2018-07-11T11:23:46.051Z,97267.66
2018-07-11T11:29:04.650Z,97281.05
2018-07-11T11:31:50.396Z,97284.81
2018-07-11T11:34:33.077Z,97275.73
2018-07-11T11:37:10.495Z,97275.19
2018-07-11T11:39:52.224Z,97283.15
2018-07-11T11:42:26.142Z,97279.43
2018-07-11T11:45:09.214Z,97283.91
2018-07-11T11:47:59.389Z,97284.18
2018-07-11T11:50:41.644Z,97286.69
2018-07-11T11:53:22.630Z,97279.45
2018-07-11T11:58:50.461Z,97276.03
2018-07-11T12:01:32.131Z,97270.30
2018-07-11T12:04:09.147Z,97268.11
2018-07-11T12:06:53.401Z,97268.09
2018-07-11T12:09:31.627Z,97268.62
2018-07-11T12:12:09.444Z,97270.29
2018-07-11T12:14:49.404Z,97260.69
2018-07-11T12:17:32.192Z,97262.08
2018-07-11T12:20:09.765Z,97262.97
2018-07-11T12:22:45.004Z,97263.81
2018-07-11T12:25:27.987Z,97263.48
2018-07-11T12:28:07.279Z,97270.33
2018-07-11T12:30:52.986Z,97282.86
2018-07-11T12:33:34.373Z,97281.96
2018-07-11T12:36:19.097Z,97287.98
2018-07-11T12:39:08.686Z,97296.07
2018-07-11T12:41:49.304Z,97300.19
2018-07-11T12:44:35.323Z,97288.35
2018-07-11T12:47:17.962Z,97284.99
2018-07-11T12:49:58.493Z,97285.08
2018-07-11T12:52:39.450Z,97287.77
2018-07-11T12:55:21.252Z,97291.02
2018-07-11T13:00:44.790Z,97283.66
2018-07-11T13:03:24.314Z,97288.34
2018-07-11T13:06:02.613Z,97284.31
2018-07-11T13:08:38.701Z,97292.35
2018-07-11T13:14:09.134Z,97295.95
2018-07-11T13:16:52.110Z,97304.14
2018-07-11T13:19:33.345Z,97307.27
2018-07-11T13:22:13.445Z,97317.73
2018-07-11T13:38:46.625Z,97345.28
2018-07-11T13:41:30.133Z,97348.08
2018-07-11T13:44:17.682Z,97345.94
2018-07-11T13:46:54.126Z,97325.55
2018-07-11T13:49:34.856Z,97323.33
2018-07-11T13:52:14.542Z,97333.13
2018-07-11T13:54:58.980Z,97331.63
2018-07-11T13:57:39.508Z,97331.69
2018-07-11T14:00:25.969Z,97342.31
2018-07-11T14:03:03.244Z,97356.87
2018-07-11T14:05:40.230Z,97356.91
2018-07-11T14:08:26.643Z,97356.11
2018-07-11T14:11:01.492Z,97366.77
2018-07-11T14:13:44.925Z,97367.75
2018-07-11T14:16:22.211Z,97379.63
2018-07-11T14:19:05.060Z,97373.02
2018-07-11T14:21:42.624Z,97368.12
2018-07-11T14:24:20.527Z,97370.00
2018-07-11T14:29:43.788Z,97362.78
2018-07-11T14:32:32.445Z,97367.00
2018-07-11T14:37:58.955Z,97360.45
2018-07-11T14:40:42.262Z,97359.26
2018-07-11T14:43:25.319Z,97361.55
2018-07-11T14:46:06.485Z,97357.11
2018-07-11T14:48:49.512Z,97353.39
2018-07-11T14:51:34.628Z,97354.95
2018-07-11T14:54:15.430Z,97359.74
2018-07-11T14:56:51.858Z,97358.01
2018-07-11T15:02:17.742Z,97361.53
2018-07-11T15:04:58.166Z,97368.28
2018-07-11T15:07:44.413Z,97370.97
2018-07-11T15:10:23.952Z,97369.82
2018-07-11T15:13:05.118Z,97370.02
2018-07-11T15:15:43.855Z,97364.81
2018-07-11T15:18:28.050Z,97367.32
2018-07-11T15:21:04.723Z,97363.14
2018-07-11T15:23:45.507Z,97365.45
2018-07-11T15:26:27.092Z,97353.80
2018-07-11T15:29:06.931Z,97355.84
2018-07-11T15:31:46.644Z,97364.58
2018-07-11T15:34:23.996Z,97364.77
2018-07-11T15:37:06.008Z,97366.55
2018-07-11T15:39:46.644Z,97369.70
2018-07-11T15:42:31.348Z,97371.55
2018-07-11T15:45:09.535Z,97382.91
2018-07-11T15:47:51.333Z,97390.12
2018-07-11T15:50:29.838Z,97391.36
2018-07-11T15:53:17.931Z,97398.74
2018-07-11T15:56:03.327Z,97400.58
2018-07-11T15:58:47.891Z,97405.44
2018-07-11T16:01:29.768Z,97410.53
2018-07-11T16:04:09.747Z,97415.18
2018-07-11T16:06:54.229Z,97420.72
2018-07-11T16:09:37.818Z,97417.66
2018-07-11T16:12:14.721Z,97419.38
2018-07-11T16:14:56.136Z,97424.46
2018-07-11T16:17:43.140Z,97415.26
2018-07-11T16:20:24.891Z,97412.79
2018-07-11T16:23:02.768Z,97416.63
2018-07-11T16:25:42.253Z,97422.63
2018-07-11T16:28:23.220Z,97427.34
2018-07-11T16:33:46.843Z,97422.98
2018-07-11T16:36:35.811Z,97426.72
2018-07-11T16:41:53.831Z,97431.78
2018-07-11T16:44:41.799Z,97425.05
2018-07-11T16:47:17.737Z,97426.94
2018-07-11T16:49:55.716Z,97425.52
2018-07-11T16:52:34.176Z,97431.14
2018-07-11T16:55:10.932Z,97435.02
2018-07-11T16:57:57.080Z,97429.65
2018-07-11T17:00:39.055Z,97427.98
2018-07-11T17:03:17.440Z,97428.36
2018-07-11T17:06:00.528Z,97431.63
2018-07-11T17:08:43.667Z,97435.06
2018-07-11T17:11:25.644Z,97436.46
2018-07-11T17:16:56.636Z,97428.18
2018-07-11T17:19:38.641Z,97423.20
2018-07-11T17:22:19.804Z,97420.77
2018-07-11T17:25:02.740Z,97412.82
2018-07-11T17:27:42.651Z,97411.77
2018-07-11T17:30:18.635Z,97414.92
2018-07-11T17:35:48.502Z,97421.22
2018-07-11T17:38:33.132Z,97428.36
2018-07-11T17:41:15.083Z,97433.95
2018-07-11T17:43:56.936Z,97437.32
2018-07-11T17:46:38.892Z,97438.16
2018-07-11T17:49:27.790Z,97443.35
2018-07-11T17:52:18.722Z,97441.75
2018-07-11T17:55:23.075Z,97428.85
2018-07-11T17:58:03.557Z,97421.44
2018-07-11T18:00:56.814Z,97420.36
2018-07-11T18:03:45.807Z,97432.72
2018-07-11T18:06:34.102Z,97427.44
2018-07-11T18:09:25.933Z,97442.51
2018-07-11T18:12:11.273Z,97456.28
2018-07-11T18:14:57.033Z,97462.29
2018-07-11T18:17:48.773Z,97471.05
2018-07-11T18:20:43.311Z,97474.23
2018-07-11T18:23:25.178Z,97469.89
2018-07-11T18:29:04.054Z,97478.83
2018-07-11T18:31:58.417Z,97486.62
2018-07-11T18:35:24.336Z,97486.58
2018-07-11T18:38:10.348Z,97501.73
2018-07-11T18:41:08.442Z,97511.74
2018-07-11T18:44:02.357Z,97505.02
2018-07-11T18:46:53.831Z,97508.87
2018-07-11T18:49:39.492Z,97516.28
2018-07-11T18:52:23.579Z,97514.98
2018-07-11T18:55:02.866Z,97516.23
2018-07-11T18:58:02.114Z,97513.51
2018-07-11T19:00:49.782Z,97502.97
2018-07-11T19:03:38.916Z,97506.70
2018-07-11T19:06:55.216Z,97514.33
2018-07-11T19:09:51.245Z,97521.47
2018-07-11T19:12:38.508Z,97525.38
2018-07-11T19:15:22.608Z,97530.30
2018-07-11T19:18:14.501Z,97530.66
2018-07-11T19:21:17.920Z,97535.91
2018-07-11T19:24:09.461Z,97532.91
2018-07-11T19:26:56.694Z,97535.55
2018-07-11T19:30:21.910Z,97550.12
2018-07-11T19:33:38.211Z,97550.52
2018-07-11T19:42:29.941Z,97558.25
2018-07-11T19:45:14.585Z,97557.55
2018-07-11T19:48:01.501Z,97553.87
2018-07-11T19:50:50.358Z,97549.03
2018-07-11T19:53:43.682Z,97550.04
2018-07-11T19:56:29.943Z,97542.47
2018-07-11T19:59:06.466Z,97535.73
2018-07-11T20:01:42.788Z,97530.14
2018-07-11T20:04:18.385Z,97524.91
2018-07-11T20:06:53.880Z,97524.19
2018-07-11T20:09:32.090Z,97531.62
2018-07-11T20:12:10.331Z,97534.55
2018-07-11T20:14:47.478Z,97537.45
2018-07-11T20:17:24.888Z,97536.92
2018-07-11T20:20:01.215Z,97539.70
2018-07-11T20:22:40.136Z,97539.78
2018-07-11T20:25:27.257Z,97539.53
2018-07-11T20:28:02.656Z,97537.57
2018-07-11T20:30:47.845Z,97543.99
2018-07-11T20:33:35.589Z,97546.31
2018-07-11T20:36:11.927Z,97554.95
2018-07-11T20:38:54.127Z,97555.80
2018-07-11T20:41:36.228Z,97561.34
2018-07-11T20:44:14.156Z,97560.13
2018-07-11T20:46:58.035Z,97561.08
2018-07-11T20:49:43.171Z,97567.42
2018-07-11T20:52:25.441Z,97563.27
2018-07-11T20:55:10.392Z,97569.82
2018-07-11T20:57:50.032Z,97571.53
2018-07-11T21:00:34.320Z,97573.77
2018-07-11T21:03:20.371Z,97571.85
2018-07-11T21:07:19.800Z,97569.81
2018-07-11T21:12:16.494Z,97573.95
2018-07-11T21:15:18.958Z,97565.70
2018-07-11T21:18:11.861Z,97570.26
2018-07-11T21:20:54.765Z,97572.32
2018-07-11T21:23:30.185Z,97568.70
2018-07-11T21:26:13.128Z,97560.61
2018-07-11T21:28:56.044Z,97565.52
2018-07-11T21:31:37.927Z,97565.40
2018-07-11T21:34:19.263Z,97575.47
2018-07-11T21:36:58.092Z,97572.70
2018-07-11T21:39:39.942Z,97570.67
2018-07-11T21:42:24.708Z,97568.63
2018-07-11T21:45:03.908Z,97574.81
2018-07-11T21:47:46.989Z,97572.59
2018-07-11T21:50:31.856Z,97577.13
2018-07-11T21:53:11.458Z,97577.22
2018-07-11T21:55:57.328Z,97579.25
2018-07-11T21:58:36.240Z,97574.13
2018-07-11T22:01:13.855Z,97580.38
2018-07-11T22:03:55.892Z,97580.97
2018-07-11T22:06:34.609Z,97582.14
2018-07-11T22:09:12.349Z,97576.81
2018-07-11T22:11:53.598Z,97571.00
2018-07-11T22:14:42.653Z,97572.27
2018-07-11T22:17:33.559Z,97570.52
2018-07-11T22:20:07.270Z,97574.77
2018-07-11T22:22:44.825Z,97574.95
2018-07-11T22:25:20.821Z,97576.91
2018-07-11T22:27:55.287Z,97569.91
2018-07-11T22:30:28.420Z,97561.98
2018-07-11T22:33:04.512Z,97556.86
2018-07-11T22:35:37.126Z,97553.34
2018-07-11T22:38:12.067Z,97543.20
2018-07-11T22:40:51.248Z,97547.00
2018-07-11T22:43:26.567Z,97555.70
2018-07-11T22:45:59.606Z,97553.09
2018-07-11T22:51:07.707Z,97556.48
2018-07-11T22:53:40.577Z,97554.37
2018-07-11T22:56:11.733Z,97556.66
2018-07-11T22:58:45.104Z,97553.66
2018-07-11T23:01:21.477Z,97553.09
2018-07-11T23:03:55.695Z,97545.50
2018-07-11T23:09:07.211Z,97549.00
2018-07-11T23:11:40.430Z,97556.27
2018-07-11T23:14:18.836Z,97550.39
2018-07-11T23:16:53.942Z,97541.95
2018-07-11T23:19:25.220Z,97543.73
2018-07-11T23:22:01.450Z,97543.75
2018-07-11T23:27:14.701Z,97539.16
2018-07-11T23:29:46.735Z,97537.34
2018-07-11T23:32:18.335Z,97543.33
2018-07-11T23:34:50.816Z,97549.82
2018-07-11T23:37:21.886Z,97543.59
2018-07-11T23:39:57.364Z,97542.91
2018-07-11T23:42:31.921Z,97548.92
2018-07-11T23:45:09.065Z,97545.39
2018-07-11T23:47:40.347Z,97540.87
2018-07-11T23:50:11.453Z,97537.69
2018-07-11T23:52:44.513Z,97549.77
2018-07-11T23:55:15.820Z,97558.84
2018-07-11T23:57:49.028Z,97555.83
